Time,TemperatureF,DewpointF,PressureIn,WindDirection,WindDirectionDegrees,WindSpeedMPH,WindSpeedGustMPH,Humidity,HourlyPrecipIn,Conditions,Clouds,dailyrainin,SoftwareType,DateUTC
2013-03-16 00:00:00,47.8,43.8,29.69,ENE,61,1.0,2.0,86,0.00,,,0.00,VWS V14.01,2013-03-16 05:00:00,
2013-03-16 00:05:00,47.7,43.7,29.68,ENE,61,0.0,1.0,86,0.00,,,0.00,VWS V14.01,2013-03-16 05:05:00,
2013-03-16 00:10:00,47.6,43.6,29.69,ENE,61,3.0,3.0,86,0.00,,,0.00,VWS V14.01,2013-03-16 05:10:00,
2013-03-16 00:15:00,47.5,43.5,29.69,NE,44,0.0,2.0,86,0.00,,,0.00,VWS V14.01,2013-03-16 05:15:00,
2013-03-16 00:20:00,47.4,43.4,29.69,NE,44,1.0,2.0,86,0.00,,,0.00,VWS V14.01,2013-03-16 05:20:00,
2013-03-16 00:25:00,47.1,43.1,29.68,NE,44,1.0,2.0,86,0.00,,,0.00,VWS V14.01,2013-03-16 05:25:00,
2013-03-16 00:30:00,46.9,43.2,29.68,NE,44,0.0,1.0,87,0.00,,,0.00,VWS V14.01,2013-03-16 05:30:00,
2013-03-16 00:35:00,46.7,43.0,29.67,NE,44,2.0,2.0,87,0.00,,,0.00,VWS V14.01,2013-03-16 05:35:00,
2013-03-16 00:40:00,46.4,42.8,29.68,NE,44,2.0,2.0,87,0.00,,,0.00,VWS V14.01,2013-03-16 05:40:00,
2013-03-16 00:45:00,46.3,43.0,29.67,ENE,62,0.0,2.0,88,0.00,,,0.00,VWS V14.01,2013-03-16 05:45:00,
2013-03-16 00:50:00,46.1,42.8,29.67,ENE,62,3.0,3.0,88,0.00,,,0.00,VWS V14.01,2013-03-16 05:50:00,
2013-03-16 00:55:00,45.8,42.8,29.67,NNE,32,0.0,2.0,89,0.00,,,0.00,VWS V14.01,2013-03-16 05:55:00,
2013-03-16 01:00:00,45.6,42.5,29.67,NE,51,0.0,1.0,89,0.00,,,0.00,VWS V14.01,2013-03-16 06:00:00,
2013-03-16 01:05:00,45.4,42.3,29.66,NE,51,2.0,2.0,89,0.00,,,0.00,VWS V14.01,2013-03-16 06:05:00,
2013-03-16 01:10:00,45.2,42.2,29.67,ENE,61,0.0,1.0,89,0.00,,,0.00,VWS V14.01,2013-03-16 06:10:00,
2013-03-16 01:15:00,45.1,42.1,29.67,ENE,61,1.0,1.0,89,0.00,,,0.00,VWS V14.01,2013-03-16 06:15:00,
2013-03-16 01:20:00,45.0,42.2,29.68,ENE,61,0.0,0.0,90,0.00,,,0.00,VWS V14.01,2013-03-16 06:20:00,
2013-03-16 01:25:00,44.8,42.0,29.68,ENE,61,2.0,3.0,90,0.00,,,0.00,VWS V14.01,2013-03-16 06:25:00,
2013-03-16 01:30:00,44.5,41.8,29.68,ENE,61,2.0,3.0,90,0.00,,,0.00,VWS V14.01,2013-03-16 06:30:00,
2013-03-16 01:35:00,44.4,41.7,29.69,ENE,67,2.0,2.0,90,0.00,,,0.00,VWS V14.01,2013-03-16 06:35:00,
2013-03-16 01:40:00,44.3,41.8,29.68,ENE,67,0.0,1.0,91,0.00,,,0.00,VWS V14.01,2013-03-16 06:40:00,
2013-03-16 01:45:00,44.1,41.4,29.69,NNE,33,4.0,4.0,90,0.00,,,0.00,VWS V14.01,2013-03-16 06:45:00,
2013-03-16 01:50:00,43.8,41.3,29.69,NNE,23,4.0,5.0,91,0.00,,,0.00,VWS V14.01,2013-03-16 06:50:00,
2013-03-16 01:55:00,43.7,41.5,29.69,NE,46,3.0,3.0,92,0.00,,,0.00,VWS V14.01,2013-03-16 06:55:00,
2013-03-16 02:00:00,43.6,41.2,29.68,NE,51,1.0,4.0,91,0.00,,,0.00,VWS V14.01,2013-03-16 07:00:00,
2013-03-16 02:05:00,43.4,41.0,29.69,NE,51,3.0,4.0,91,0.00,,,0.00,VWS V14.01,2013-03-16 07:05:00,
2013-03-16 02:10:00,43.3,41.1,29.70,NNE,21,2.0,2.0,92,0.00,,,0.00,VWS V14.01,2013-03-16 07:10:00,
2013-03-16 02:15:00,43.1,40.9,29.70,NNE,21,1.0,2.0,92,0.00,,,0.00,VWS V14.01,2013-03-16 07:15:00,
2013-03-16 02:20:00,43.0,40.8,29.70,NNE,21,0.0,2.0,92,0.00,,,0.00,VWS V14.01,2013-03-16 07:20:00,
2013-03-16 02:25:00,42.8,40.6,29.70,NNE,21,2.0,3.0,92,0.00,,,0.00,VWS V14.01,2013-03-16 07:25:00,
2013-03-16 02:30:00,42.7,40.5,29.68,NNE,21,1.0,2.0,92,0.00,,,0.00,VWS V14.01,2013-03-16 07:30:00,
2013-03-16 02:35:00,42.6,40.4,29.68,NE,44,1.0,3.0,92,0.00,,,0.00,VWS V14.01,2013-03-16 07:35:00,
2013-03-16 02:40:00,42.4,40.2,29.68,NE,42,2.0,4.0,92,0.00,,,0.00,VWS V14.01,2013-03-16 07:40:00,
2013-03-16 02:45:00,42.0,39.6,29.68,NE,44,2.0,3.0,91,0.00,,,0.00,VWS V14.01,2013-03-16 07:45:00,
2013-03-16 02:50:00,41.2,38.5,29.68,ENE,58,3.0,5.0,90,0.00,,,0.00,VWS V14.01,2013-03-16 07:50:00,
2013-03-16 02:55:00,40.4,38.0,29.68,NE,53,1.0,3.0,91,0.00,,,0.00,VWS V14.01,2013-03-16 07:55:00,
2013-03-16 03:00:00,39.9,37.8,29.68,NE,51,3.0,5.0,92,0.00,,,0.00,VWS V14.01,2013-03-16 08:00:00,
2013-03-16 03:05:00,39.6,37.5,29.68,NE,51,3.0,3.0,92,0.00,,,0.00,VWS V14.01,2013-03-16 08:05:00,
2013-03-16 03:10:00,39.3,37.5,29.68,NE,36,4.0,5.0,93,0.00,,,0.00,VWS V14.01,2013-03-16 08:10:00,
2013-03-16 03:15:00,39.0,37.2,29.69,ENE,59,2.0,5.0,93,0.00,,,0.00,VWS V14.01,2013-03-16 08:15:00,
2013-03-16 03:20:00,38.8,37.2,29.69,NE,40,2.0,4.0,94,0.00,,,0.00,VWS V14.01,2013-03-16 08:20:00,
2013-03-16 03:25:00,38.7,37.1,29.70,NE,37,4.0,6.0,94,0.00,,,0.00,VWS V14.01,2013-03-16 08:25:00,
2013-03-16 03:30:00,38.6,37.0,29.70,NE,39,5.0,5.0,94,0.00,,,0.00,VWS V14.01,2013-03-16 08:30:00,
2013-03-16 03:35:00,38.5,36.9,29.71,NE,44,2.0,5.0,94,0.00,,,0.00,VWS V14.01,2013-03-16 08:35:00,
2013-03-16 03:40:00,38.5,36.9,29.71,NNE,18,2.0,3.0,94,0.00,,,0.00,VWS V14.01,2013-03-16 08:40:00,
2013-03-16 03:45:00,38.4,36.8,29.72,NNE,30,2.0,3.0,94,0.00,,,0.00,VWS V14.01,2013-03-16 08:45:00,
2013-03-16 03:50:00,38.3,36.7,29.73,NNE,33,5.0,8.0,94,0.00,,,0.00,VWS V14.01,2013-03-16 08:50:00,
2013-03-16 03:55:00,38.1,36.5,29.73,NE,35,3.0,5.0,94,0.00,,,0.00,VWS V14.01,2013-03-16 08:55:00,
2013-03-16 04:00:00,38.0,36.4,29.73,NNE,33,6.0,6.0,94,0.00,,,0.00,VWS V14.01,2013-03-16 09:00:00,
2013-03-16 04:05:00,37.8,36.5,29.73,NE,51,6.0,8.0,95,0.00,,,0.00,VWS V14.01,2013-03-16 09:05:00,
2013-03-16 04:10:00,37.7,36.4,29.72,NE,35,3.0,4.0,95,0.00,,,0.00,VWS V14.01,2013-03-16 09:10:00,
2013-03-16 04:15:00,37.7,36.4,29.72,NNE,29,2.0,6.0,95,0.00,,,0.00,VWS V14.01,2013-03-16 09:15:00,
2013-03-16 04:20:00,37.6,36.3,29.72,NE,55,5.0,7.0,95,0.00,,,0.00,VWS V14.01,2013-03-16 09:20:00,
2013-03-16 04:25:00,37.5,35.9,29.72,NE,41,4.0,6.0,94,0.00,,,0.00,VWS V14.01,2013-03-16 09:25:00,
2013-03-16 04:30:00,37.4,35.8,29.72,NNE,25,3.0,3.0,94,0.00,,,0.00,VWS V14.01,2013-03-16 09:30:00,
2013-03-16 04:35:00,37.4,35.8,29.73,WSW,251,3.0,5.0,94,0.00,,,0.00,VWS V14.01,2013-03-16 09:35:00,
2013-03-16 04:40:00,37.3,35.7,29.73,NE,34,2.0,4.0,94,0.00,,,0.00,VWS V14.01,2013-03-16 09:40:00,
2013-03-16 04:45:00,37.3,35.7,29.73,NE,37,1.0,4.0,94,0.00,,,0.00,VWS V14.01,2013-03-16 09:45:00,
2013-03-16 04:50:00,37.3,35.7,29.73,NE,36,4.0,5.0,94,0.00,,,0.00,VWS V14.01,2013-03-16 09:50:00,
2013-03-16 04:55:00,37.2,35.6,29.73,NE,53,3.0,5.0,94,0.00,,,0.00,VWS V14.01,2013-03-16 09:55:00,
2013-03-16 05:00:00,37.1,35.5,29.74,NE,38,5.0,6.0,94,0.00,,,0.00,VWS V14.01,2013-03-16 10:00:00,
2013-03-16 05:05:00,37.1,35.5,29.73,NE,51,2.0,4.0,94,0.00,,,0.00,VWS V14.01,2013-03-16 10:05:00,
2013-03-16 05:10:00,37.1,35.5,29.74,NE,38,0.0,4.0,94,0.00,,,0.00,VWS V14.01,2013-03-16 10:10:00,
2013-03-16 05:15:00,37.1,35.5,29.74,NNE,31,3.0,5.0,94,0.00,,,0.00,VWS V14.01,2013-03-16 10:15:00,
2013-03-16 05:20:00,37.0,35.4,29.74,NE,44,1.0,3.0,94,0.00,,,0.00,VWS V14.01,2013-03-16 10:20:00,
2013-03-16 05:25:00,37.1,35.8,29.75,NNE,33,3.0,4.0,95,0.00,,,0.00,VWS V14.01,2013-03-16 10:25:00,
2013-03-16 05:30:00,37.0,35.7,29.75,NE,43,3.0,7.0,95,0.00,,,0.00,VWS V14.01,2013-03-16 10:30:00,
2013-03-16 05:35:00,36.9,35.3,29.75,NE,51,4.0,6.0,94,0.00,,,0.00,VWS V14.01,2013-03-16 10:35:00,
2013-03-16 05:40:00,36.9,35.3,29.75,NE,38,4.0,6.0,94,0.00,,,0.00,VWS V14.01,2013-03-16 10:40:00,
2013-03-16 05:45:00,36.8,35.5,29.76,NNE,30,5.0,7.0,95,0.00,,,0.00,VWS V14.01,2013-03-16 10:45:00,
2013-03-16 05:50:00,36.8,35.5,29.76,ENE,70,3.0,3.0,95,0.00,,,0.00,VWS V14.01,2013-03-16 10:50:00,
2013-03-16 05:55:00,36.8,35.5,29.77,NE,50,2.0,4.0,95,0.00,,,0.00,VWS V14.01,2013-03-16 10:55:00,
2013-03-16 06:00:00,36.8,35.5,29.77,NE,43,4.0,4.0,95,0.00,,,0.00,VWS V14.01,2013-03-16 11:00:00,
2013-03-16 06:05:00,36.8,35.5,29.77,NE,43,2.0,2.0,95,0.00,,,0.00,VWS V14.01,2013-03-16 11:05:00,
2013-03-16 06:10:00,36.8,35.5,29.78,NE,34,0.0,2.0,95,0.00,,,0.00,VWS V14.01,2013-03-16 11:10:00,
2013-03-16 06:15:00,36.8,35.5,29.79,NE,34,4.0,4.0,95,0.00,,,0.00,VWS V14.01,2013-03-16 11:15:00,
2013-03-16 06:20:00,36.8,35.5,29.79,NE,38,0.0,2.0,95,0.00,,,0.00,VWS V14.01,2013-03-16 11:20:00,
2013-03-16 06:25:00,36.7,35.4,29.80,NE,38,1.0,3.0,95,0.00,,,0.00,VWS V14.01,2013-03-16 11:25:00,
2013-03-16 06:30:00,36.6,35.3,29.80,NE,38,2.0,4.0,95,0.00,,,0.00,VWS V14.01,2013-03-16 11:30:00,
2013-03-16 06:35:00,36.5,35.2,29.81,NE,45,2.0,5.0,95,0.00,,,0.00,VWS V14.01,2013-03-16 11:35:00,
2013-03-16 06:40:00,36.5,35.2,29.81,NNE,32,1.0,2.0,95,0.00,,,0.00,VWS V14.01,2013-03-16 11:40:00,
2013-03-16 06:45:00,36.5,35.2,29.82,NE,36,2.0,3.0,95,0.00,,,0.00,VWS V14.01,2013-03-16 11:45:00,
2013-03-16 06:50:00,36.4,35.1,29.82,NE,42,0.0,4.0,95,0.00,,,0.00,VWS V14.01,2013-03-16 11:50:00,
2013-03-16 06:55:00,36.4,35.1,29.82,NE,42,2.0,3.0,95,0.00,,,0.00,VWS V14.01,2013-03-16 11:55:00,
2013-03-16 07:00:00,36.4,35.1,29.82,NE,42,1.0,1.0,95,0.00,,,0.00,VWS V14.01,2013-03-16 12:00:00,
2013-03-16 07:05:00,36.4,35.1,29.82,NE,42,1.0,3.0,95,0.00,,,0.00,VWS V14.01,2013-03-16 12:05:00,
2013-03-16 07:10:00,36.4,35.1,29.82,NE,42,2.0,4.0,95,0.00,,,0.00,VWS V14.01,2013-03-16 12:10:00,
2013-03-16 07:15:00,36.4,35.1,29.83,NE,34,3.0,3.0,95,0.00,,,0.00,VWS V14.01,2013-03-16 12:15:00,
2013-03-16 07:20:00,36.4,35.1,29.83,NE,34,1.0,2.0,95,0.00,,,0.00,VWS V14.01,2013-03-16 12:20:00,
2013-03-16 07:25:00,36.4,35.1,29.83,NE,34,0.0,0.0,95,0.00,,,0.00,VWS V14.01,2013-03-16 12:25:00,
2013-03-16 07:30:00,36.4,35.1,29.84,NE,34,0.0,0.0,95,0.00,,,0.00,VWS V14.01,2013-03-16 12:30:00,
2013-03-16 07:35:00,36.3,35.0,29.84,NE,34,2.0,2.0,95,0.00,,,0.00,VWS V14.01,2013-03-16 12:35:00,
2013-03-16 07:40:00,36.2,34.9,29.85,NE,34,0.0,1.0,95,0.00,,,0.00,VWS V14.01,2013-03-16 12:40:00,
2013-03-16 07:45:00,36.1,34.8,29.85,NE,34,1.0,2.0,95,0.00,,,0.00,VWS V14.01,2013-03-16 12:45:00,
2013-03-16 07:50:00,36.0,34.7,29.85,NE,34,0.0,0.0,95,0.00,,,0.00,VWS V14.01,2013-03-16 12:50:00,
2013-03-16 07:55:00,36.0,34.7,29.85,NE,34,0.0,1.0,95,0.00,,,0.00,VWS V14.01,2013-03-16 12:55:00,
2013-03-16 08:00:00,36.0,34.7,29.86,NE,34,0.0,0.0,95,0.00,,,0.00,VWS V14.01,2013-03-16 13:00:00,
2013-03-16 08:05:00,36.0,34.7,29.86,NE,34,0.0,0.0,95,0.00,,,0.00,VWS V14.01,2013-03-16 13:05:00,
2013-03-16 08:10:00,36.1,34.8,29.87,NE,34,2.0,2.0,95,0.00,,,0.00,VWS V14.01,2013-03-16 13:10:00,
2013-03-16 08:15:00,36.2,34.9,29.87,NE,34,2.0,2.0,95,0.00,,,0.00,VWS V14.01,2013-03-16 13:15:00,
2013-03-16 08:20:00,36.2,34.9,29.87,NE,34,0.0,0.0,95,0.00,,,0.00,VWS V14.01,2013-03-16 13:20:00,
2013-03-16 08:25:00,36.2,34.9,29.87,NE,34,2.0,2.0,95,0.00,,,0.00,VWS V14.01,2013-03-16 13:25:00,
2013-03-16 08:30:00,36.3,35.0,29.88,NNW,340,0.0,1.0,95,0.00,,,0.00,VWS V14.01,2013-03-16 13:30:00,
2013-03-16 08:35:00,36.4,35.1,29.89,NNW,338,2.0,2.0,95,0.00,,,0.00,VWS V14.01,2013-03-16 13:35:00,
2013-03-16 08:40:00,36.4,35.1,29.89,East,84,2.0,2.0,95,0.00,,,0.00,VWS V14.01,2013-03-16 13:40:00,
2013-03-16 08:45:00,36.2,34.9,29.90,NNE,30,4.0,4.0,95,0.00,,,0.00,VWS V14.01,2013-03-16 13:45:00,
2013-03-16 08:50:00,36.1,34.8,29.90,NNE,32,0.0,2.0,95,0.00,,,0.00,VWS V14.01,2013-03-16 13:50:00,
2013-03-16 08:55:00,36.1,34.5,29.91,NW,324,1.0,4.0,94,0.00,,,0.00,VWS V14.01,2013-03-16 13:55:00,
2013-03-16 09:00:00,36.0,34.4,29.91,North,360,1.0,2.0,94,0.00,,,0.00,VWS V14.01,2013-03-16 14:00:00,
2013-03-16 09:05:00,36.0,34.4,29.92,NNE,26,4.0,4.0,94,0.00,,,0.00,VWS V14.01,2013-03-16 14:05:00,
2013-03-16 09:10:00,36.0,34.4,29.92,NE,36,5.0,6.0,94,0.00,,,0.00,VWS V14.01,2013-03-16 14:10:00,
2013-03-16 09:15:00,36.0,34.2,29.92,NNE,18,0.0,2.0,93,0.00,,,0.00,VWS V14.01,2013-03-16 14:15:00,
2013-03-16 09:20:00,36.0,34.2,29.92,NE,34,5.0,6.0,93,0.00,,,0.00,VWS V14.01,2013-03-16 14:20:00,
2013-03-16 09:25:00,35.9,34.1,29.93,NNE,26,5.0,5.0,93,0.00,,,0.00,VWS V14.01,2013-03-16 14:25:00,
2013-03-16 09:30:00,35.9,34.1,29.93,NNE,26,2.0,3.0,93,0.00,,,0.00,VWS V14.01,2013-03-16 14:30:00,
2013-03-16 09:35:00,35.9,33.8,29.93,NNE,23,2.0,2.0,92,0.00,,,0.00,VWS V14.01,2013-03-16 14:35:00,
2013-03-16 09:40:00,35.8,33.7,29.93,NE,40,5.0,5.0,92,0.00,,,0.00,VWS V14.01,2013-03-16 14:40:00,
2013-03-16 09:45:00,35.7,33.6,29.93,NNE,25,3.0,5.0,92,0.00,,,0.00,VWS V14.01,2013-03-16 14:45:00,
2013-03-16 09:50:00,35.7,33.6,29.94,NNE,26,2.0,2.0,92,0.00,,,0.00,VWS V14.01,2013-03-16 14:50:00,
2013-03-16 09:55:00,35.7,33.6,29.94,NE,38,1.0,1.0,92,0.00,,,0.00,VWS V14.01,2013-03-16 14:55:00,
2013-03-16 10:00:00,35.7,33.6,29.94,South,178,1.0,1.0,92,0.00,,,0.00,VWS V14.01,2013-03-16 15:00:00,
2013-03-16 10:05:00,35.7,33.9,29.94,NNE,22,0.0,1.0,93,0.00,,,0.00,VWS V14.01,2013-03-16 15:05:00,
2013-03-16 10:10:00,35.7,33.6,29.94,NNE,31,3.0,5.0,92,0.00,,,0.00,VWS V14.01,2013-03-16 15:10:00,
2013-03-16 10:15:00,35.7,33.6,29.95,NE,34,2.0,3.0,92,0.00,,,0.00,VWS V14.01,2013-03-16 15:15:00,
2013-03-16 10:20:00,35.8,33.7,29.95,NE,34,2.0,3.0,92,0.00,,,0.00,VWS V14.01,2013-03-16 15:20:00,
2013-03-16 10:25:00,35.8,33.7,29.95,NNE,28,0.0,0.0,92,0.00,,,0.00,VWS V14.01,2013-03-16 15:25:00,
2013-03-16 10:30:00,35.8,33.7,29.95,NE,34,2.0,4.0,92,0.00,,,0.00,VWS V14.01,2013-03-16 15:30:00,
2013-03-16 10:35:00,35.8,33.7,29.95,NNE,19,2.0,2.0,92,0.00,,,0.00,VWS V14.01,2013-03-16 15:35:00,
2013-03-16 10:40:00,35.8,33.7,29.96,NNE,24,0.0,2.0,92,0.00,,,0.00,VWS V14.01,2013-03-16 15:40:00,
2013-03-16 10:45:00,35.9,33.8,29.96,NNE,28,0.0,2.0,92,0.00,,,0.00,VWS V14.01,2013-03-16 15:45:00,
2013-03-16 10:50:00,36.0,34.2,29.97,West,262,1.0,2.0,93,0.00,,,0.00,VWS V14.01,2013-03-16 15:50:00,
2013-03-16 10:55:00,36.0,33.9,29.97,NE,53,1.0,3.0,92,0.00,,,0.00,VWS V14.01,2013-03-16 15:55:00,
2013-03-16 11:00:00,36.1,34.0,29.97,NNE,30,3.0,7.0,92,0.00,,,0.00,VWS V14.01,2013-03-16 16:00:00,
2013-03-16 11:05:00,36.1,34.0,29.97,NNE,32,3.0,3.0,92,0.00,,,0.00,VWS V14.01,2013-03-16 16:05:00,
2013-03-16 11:10:00,36.2,34.1,29.98,North,9,0.0,6.0,92,0.00,,,0.00,VWS V14.01,2013-03-16 16:10:00,
2013-03-16 11:15:00,36.4,34.3,29.98,NNE,22,5.0,6.0,92,0.00,,,0.00,VWS V14.01,2013-03-16 16:15:00,
2013-03-16 11:20:00,36.6,34.2,29.98,NE,42,3.0,4.0,91,0.00,,,0.00,VWS V14.01,2013-03-16 16:20:00,
2013-03-16 11:25:00,36.7,34.3,29.98,NNE,26,2.0,4.0,91,0.00,,,0.00,VWS V14.01,2013-03-16 16:25:00,
2013-03-16 11:30:00,36.8,34.4,29.99,NE,35,5.0,5.0,91,0.00,,,0.00,VWS V14.01,2013-03-16 16:30:00,
2013-03-16 11:35:00,37.0,34.6,29.98,North,11,3.0,4.0,91,0.00,,,0.00,VWS V14.01,2013-03-16 16:35:00,
2013-03-16 11:40:00,37.2,34.8,29.99,North,5,1.0,4.0,91,0.00,,,0.00,VWS V14.01,2013-03-16 16:40:00,
2013-03-16 11:45:00,37.4,34.7,29.99,NNE,28,2.0,8.0,90,0.00,,,0.00,VWS V14.01,2013-03-16 16:45:00,
2013-03-16 11:50:00,37.8,35.1,29.99,NNE,31,2.0,4.0,90,0.00,,,0.00,VWS V14.01,2013-03-16 16:50:00,
2013-03-16 11:55:00,38.4,35.5,29.99,NE,34,1.0,1.0,89,0.00,,,0.00,VWS V14.01,2013-03-16 16:55:00,
2013-03-16 12:00:00,38.8,35.6,29.99,South,190,0.0,2.0,88,0.00,,,0.00,VWS V14.01,2013-03-16 17:00:00,
2013-03-16 12:05:00,39.1,35.3,30.00,WSW,248,2.0,2.0,86,0.00,,,0.00,VWS V14.01,2013-03-16 17:05:00,
2013-03-16 12:10:00,39.0,34.9,30.00,NE,55,3.0,7.0,85,0.00,,,0.00,VWS V14.01,2013-03-16 17:10:00,
2013-03-16 12:15:00,38.7,34.9,30.00,NNE,12,3.0,3.0,86,0.00,,,0.00,VWS V14.01,2013-03-16 17:15:00,
2013-03-16 12:20:00,38.7,34.9,30.00,NE,53,3.0,3.0,86,0.00,,,0.00,VWS V14.01,2013-03-16 17:20:00,
2013-03-16 12:25:00,38.9,35.1,30.00,NNE,26,6.0,6.0,86,0.00,,,0.00,VWS V14.01,2013-03-16 17:25:00,
2013-03-16 12:30:00,39.0,34.9,30.00,NNE,15,5.0,5.0,85,0.00,,,0.00,VWS V14.01,2013-03-16 17:30:00,
2013-03-16 12:35:00,39.4,35.3,30.00,NNE,19,3.0,6.0,85,0.00,,,0.00,VWS V14.01,2013-03-16 17:35:00,
2013-03-16 12:40:00,39.5,35.1,30.00,NNE,32,3.0,3.0,84,0.00,,,0.00,VWS V14.01,2013-03-16 17:40:00,
2013-03-16 12:45:00,39.5,34.8,30.00,WNW,295,0.0,3.0,83,0.00,,,0.00,VWS V14.01,2013-03-16 17:45:00,
2013-03-16 12:50:00,39.7,34.7,30.01,North,9,3.0,5.0,82,0.00,,,0.00,VWS V14.01,2013-03-16 17:50:00,
2013-03-16 12:55:00,39.9,34.9,30.00,NNE,30,3.0,5.0,82,0.00,,,0.00,VWS V14.01,2013-03-16 17:55:00,
2013-03-16 13:00:00,40.0,35.0,30.00,NE,37,4.0,6.0,82,0.00,,,0.00,VWS V14.01,2013-03-16 18:00:00,
2013-03-16 13:05:00,40.4,35.0,30.00,NE,36,5.0,6.0,81,0.00,,,0.00,VWS V14.01,2013-03-16 18:05:00,
2013-03-16 13:10:00,40.7,35.0,30.00,NNE,15,0.0,4.0,80,0.00,,,0.00,VWS V14.01,2013-03-16 18:10:00,
2013-03-16 13:15:00,40.8,35.4,30.00,NE,46,7.0,10.0,81,0.00,,,0.00,VWS V14.01,2013-03-16 18:15:00,
2013-03-16 13:20:00,40.8,34.5,30.00,NE,47,3.0,9.0,78,0.00,,,0.00,VWS V14.01,2013-03-16 18:20:00,
2013-03-16 13:25:00,40.9,34.6,30.00,NNE,32,7.0,8.0,78,0.00,,,0.00,VWS V14.01,2013-03-16 18:25:00,
2013-03-16 13:30:00,41.1,34.5,30.01,NNE,19,5.0,6.0,77,0.00,,,0.00,VWS V14.01,2013-03-16 18:30:00,
2013-03-16 13:35:00,41.3,34.7,30.01,NE,34,5.0,9.0,77,0.00,,,0.00,VWS V14.01,2013-03-16 18:35:00,
2013-03-16 13:40:00,41.3,34.3,30.01,NNE,28,5.0,7.0,76,0.00,,,0.00,VWS V14.01,2013-03-16 18:40:00,
2013-03-16 13:45:00,41.3,34.3,30.01,NNE,33,2.0,3.0,76,0.00,,,0.00,VWS V14.01,2013-03-16 18:45:00,
2013-03-16 13:50:00,41.5,34.5,30.01,NNE,23,3.0,6.0,76,0.00,,,0.00,VWS V14.01,2013-03-16 18:50:00,
2013-03-16 18:39:00,37.9,31.0,30.06,NE,46,2.0,3.0,76,0.00,,,0.00,VWS V14.01,2013-03-16 23:39:00,
2013-03-16 18:44:00,37.8,30.9,30.07,NE,46,1.0,1.0,76,0.00,,,0.00,VWS V14.01,2013-03-16 23:44:00,
2013-03-16 18:49:00,37.8,30.9,30.07,NE,46,0.0,0.0,76,0.00,,,0.00,VWS V14.01,2013-03-16 23:49:00,
2013-03-16 18:54:00,37.7,30.5,30.07,NE,46,3.0,3.0,75,0.00,,,0.00,VWS V14.01,2013-03-16 23:54:00,
2013-03-16 18:59:00,37.6,30.7,30.08,NE,53,2.0,4.0,76,0.00,,,0.00,VWS V14.01,2013-03-16 23:59:00,
2013-03-16 19:04:00,37.5,31.0,30.08,NE,53,2.0,2.0,77,0.00,,,0.00,VWS V14.01,2013-03-17 00:04:00,
2013-03-16 19:09:00,37.4,30.9,30.08,NE,53,1.0,2.0,77,0.00,,,0.00,VWS V14.01,2013-03-17 00:09:00,
2013-03-16 19:14:00,37.2,30.4,30.09,NE,53,1.0,3.0,76,0.00,,,0.00,VWS V14.01,2013-03-17 00:14:00,
2013-03-16 19:19:00,37.1,30.6,30.09,NE,53,2.0,2.0,77,0.00,,,0.00,VWS V14.01,2013-03-17 00:19:00,
2013-03-16 19:24:00,37.0,30.5,30.09,NE,53,2.0,2.0,77,0.00,,,0.00,VWS V14.01,2013-03-17 00:24:00,
2013-03-16 19:29:00,37.0,30.5,30.09,NE,53,0.0,1.0,77,0.00,,,0.00,VWS V14.01,2013-03-17 00:29:00,
2013-03-16 19:34:00,36.9,30.7,30.10,NE,53,2.0,2.0,78,0.00,,,0.00,VWS V14.01,2013-03-17 00:34:00,
2013-03-16 19:39:00,36.8,30.3,30.10,NE,53,1.0,2.0,77,0.00,,,0.00,VWS V14.01,2013-03-17 00:39:00,
2013-03-16 19:44:00,36.8,30.3,30.10,NE,53,1.0,2.0,77,0.00,,,0.00,VWS V14.01,2013-03-17 00:44:00,
2013-03-16 19:49:00,36.8,30.6,30.10,NE,53,0.0,1.0,78,0.00,,,0.00,VWS V14.01,2013-03-17 00:49:00,
2013-03-16 19:54:00,36.7,30.5,30.10,NE,53,1.0,2.0,78,0.00,,,0.00,VWS V14.01,2013-03-17 00:54:00,
2013-03-16 19:59:00,36.6,30.4,30.11,NE,53,0.0,2.0,78,0.00,,,0.00,VWS V14.01,2013-03-17 00:59:00,
2013-03-16 20:04:00,36.6,30.4,30.11,NE,53,1.0,2.0,78,0.00,,,0.00,VWS V14.01,2013-03-17 01:04:00,
2013-03-16 20:09:00,36.6,30.4,30.11,NE,53,1.0,1.0,78,0.00,,,0.00,VWS V14.01,2013-03-17 01:09:00,
2013-03-16 20:14:00,36.6,30.7,30.11,NE,53,0.0,1.0,79,0.00,,,0.00,VWS V14.01,2013-03-17 01:14:00,
2013-03-16 20:19:00,36.5,30.6,30.11,NE,46,1.0,4.0,79,0.00,,,0.00,VWS V14.01,2013-03-17 01:19:00,
2013-03-16 20:24:00,36.3,30.7,30.11,NE,44,2.0,2.0,80,0.00,,,0.00,VWS V14.01,2013-03-17 01:24:00,
2013-03-16 20:29:00,36.1,30.8,30.12,NE,42,3.0,3.0,81,0.00,,,0.00,VWS V14.01,2013-03-17 01:29:00,
2013-03-16 20:34:00,35.9,30.6,30.12,NE,42,1.0,2.0,81,0.00,,,0.00,VWS V14.01,2013-03-17 01:34:00,
2013-03-16 20:39:00,35.7,30.5,30.12,NE,42,1.0,2.0,81,0.00,,,0.00,VWS V14.01,2013-03-17 01:39:00,
2013-03-16 20:44:00,35.5,30.6,30.12,NE,47,0.0,3.0,82,0.00,,,0.00,VWS V14.01,2013-03-17 01:44:00,
2013-03-16 20:49:00,35.4,30.5,30.12,NE,48,1.0,2.0,82,0.00,,,0.00,VWS V14.01,2013-03-17 01:49:00,
2013-03-16 20:54:00,35.3,30.4,30.12,NE,48,0.0,1.0,82,0.00,,,0.00,VWS V14.01,2013-03-17 01:54:00,
2013-03-16 20:59:00,35.1,30.5,30.12,NE,53,2.0,4.0,83,0.00,,,0.00,VWS V14.01,2013-03-17 01:59:00,
2013-03-16 21:04:00,35.0,30.4,30.12,NE,36,1.0,3.0,83,0.00,,,0.00,VWS V14.01,2013-03-17 02:04:00,
2013-03-16 21:09:00,34.8,30.2,30.12,ENE,63,1.0,3.0,83,0.00,,,0.00,VWS V14.01,2013-03-17 02:09:00,
2013-03-16 21:14:00,34.7,30.1,30.12,North,360,2.0,2.0,83,0.00,,,0.00,VWS V14.01,2013-03-17 02:14:00,
2013-03-16 21:19:00,34.5,29.9,30.12,NE,51,1.0,2.0,83,0.00,,,0.00,VWS V14.01,2013-03-17 02:19:00,
2013-03-16 21:24:00,34.4,29.8,30.12,NE,51,0.0,2.0,83,0.00,,,0.00,VWS V14.01,2013-03-17 02:24:00,
2013-03-16 21:29:00,34.3,30.0,30.12,NE,51,1.0,2.0,84,0.00,,,0.00,VWS V14.01,2013-03-17 02:29:00,
2013-03-16 21:34:00,34.2,29.6,30.12,NE,51,2.0,3.0,83,0.00,,,0.00,VWS V14.01,2013-03-17 02:34:00,
2013-03-16 21:39:00,34.0,29.4,30.12,NE,54,2.0,5.0,83,0.00,,,0.00,VWS V14.01,2013-03-17 02:39:00,
2013-03-16 21:44:00,33.9,29.6,30.12,NE,53,2.0,3.0,84,0.00,,,0.00,VWS V14.01,2013-03-17 02:44:00,
2013-03-16 21:49:00,33.8,29.5,30.12,NE,53,0.0,2.0,84,0.00,,,0.00,VWS V14.01,2013-03-17 02:49:00,
2013-03-16 21:54:00,33.7,29.4,30.12,NE,53,1.0,2.0,84,0.00,,,0.00,VWS V14.01,2013-03-17 02:54:00,
2013-03-16 21:59:00,33.5,29.5,30.13,NE,53,1.0,2.0,85,0.00,,,0.00,VWS V14.01,2013-03-17 02:59:00,
2013-03-16 22:04:00,33.5,29.5,30.13,NE,53,1.0,1.0,85,0.00,,,0.00,VWS V14.01,2013-03-17 03:04:00,
2013-03-16 22:09:00,33.4,29.4,30.13,NE,53,2.0,3.0,85,0.00,,,0.00,VWS V14.01,2013-03-17 03:09:00,
2013-03-16 22:14:00,33.4,29.4,30.13,NE,53,1.0,2.0,85,0.00,,,0.00,VWS V14.01,2013-03-17 03:14:00,
2013-03-16 22:19:00,33.3,29.3,30.13,NE,47,1.0,2.0,85,0.00,,,0.00,VWS V14.01,2013-03-17 03:19:00,
2013-03-16 22:24:00,33.3,29.6,30.13,NE,47,1.0,2.0,86,0.00,,,0.00,VWS V14.01,2013-03-17 03:24:00,
2013-03-16 22:29:00,33.3,29.6,30.13,NE,49,1.0,3.0,86,0.00,,,0.00,VWS V14.01,2013-03-17 03:29:00,
2013-03-16 22:34:00,33.2,29.5,30.14,NE,49,0.0,2.0,86,0.00,,,0.00,VWS V14.01,2013-03-17 03:34:00,
2013-03-16 22:39:00,33.1,29.4,30.14,NE,49,1.0,2.0,86,0.00,,,0.00,VWS V14.01,2013-03-17 03:39:00,
2013-03-16 22:44:00,33.0,29.3,30.14,NE,49,0.0,3.0,86,0.00,,,0.00,VWS V14.01,2013-03-17 03:44:00,
2013-03-16 22:49:00,33.0,29.3,30.14,NE,51,3.0,4.0,86,0.00,,,0.00,VWS V14.01,2013-03-17 03:49:00,
2013-03-16 22:54:00,32.9,29.2,30.14,NE,51,2.0,2.0,86,0.00,,,0.00,VWS V14.01,2013-03-17 03:54:00,
2013-03-16 22:59:00,32.9,29.5,30.14,NE,51,1.0,2.0,87,0.00,,,0.00,VWS V14.01,2013-03-17 03:59:00,
2013-03-16 23:00:00,32.9,29.5,30.14,NE,51,1.0,1.0,87,0.00,,,0.00,VWS V14.01,2013-03-17 04:00:00,
2013-03-16 23:05:00,32.9,29.5,30.14,NE,51,0.0,1.0,87,0.00,,,0.00,VWS V14.01,2013-03-17 04:05:00,
2013-03-16 23:10:00,32.9,29.5,30.14,NE,51,1.0,2.0,87,0.00,,,0.00,VWS V14.01,2013-03-17 04:10:00,
2013-03-16 23:15:00,32.8,29.4,30.14,NE,51,2.0,2.0,87,0.00,,,0.00,VWS V14.01,2013-03-17 04:15:00,
2013-03-16 23:20:00,32.8,29.4,30.14,NE,51,0.0,1.0,87,0.00,,,0.00,VWS V14.01,2013-03-17 04:20:00,
2013-03-16 23:25:00,32.7,29.0,30.14,NE,51,3.0,3.0,86,0.00,,,0.00,VWS V14.01,2013-03-17 04:25:00,
2013-03-16 23:30:00,32.7,29.0,30.14,NE,51,1.0,1.0,86,0.00,,,0.00,VWS V14.01,2013-03-17 04:30:00,
2013-03-16 23:35:00,32.6,28.9,30.14,NE,51,1.0,2.0,86,0.00,,,0.00,VWS V14.01,2013-03-17 04:35:00,
2013-03-16 23:40:00,32.6,28.9,30.14,NE,51,2.0,2.0,86,0.00,,,0.00,VWS V14.01,2013-03-17 04:40:00,
2013-03-16 23:45:00,32.6,28.6,30.14,NE,51,1.0,2.0,85,0.00,,,0.00,VWS V14.01,2013-03-17 04:45:00,
2013-03-16 23:50:00,32.6,28.6,30.14,NE,51,3.0,3.0,85,0.00,,,0.00,VWS V14.01,2013-03-17 04:50:00,
2013-03-16 23:55:00,32.5,28.5,30.14,NE,51,2.0,2.0,85,0.00,,,0.00,VWS V14.01,2013-03-17 04:55:00,